Akebono — JG5644 — position and weather

sailwx.info

Track history (hours):
 
Tides and Currents Weather Stations Pressure Air Temp Water Temp Dewpoint Dewpoint Depression Visibility Wind Speed Wind Dir Waves Ship Positions

Akebono

Last reported at 2018-May-21 04:03 UTC. Time now 2018-May-21 20:48 UTC.
Position N 35°31' E 140°02'.

Length 33 m; draft 4.4 m.

Type: Tug. MMSI: 431000233.

Date/timePositionNaut miles runAvg speedWind from/ knotsBaromVisibWave heightAir tempDewpointWater temp
2018-May-21 04:03N 35°31' E 140°02'4 0.1
2018-May-19 10:37N 35°29' E 139°58'  
2018-May-15 14:20N 35°36' E 140°07'0 0.0
2018-May-15 14:00N 35°36' E 140°07'0 0.0
2018-May-15 13:30N 35°36' E 140°07'0 0.0
2018-May-15 13:00N 35°36' E 140°07'0 0.0
2018-May-15 12:31N 35°36' E 140°07'0 0.0
2018-May-15 12:01N 35°36' E 140°07'0 0.0
2018-May-15 11:31N 35°36' E 140°07'0 0.0
2018-May-15 11:01N 35°36' E 140°07'0 0.0
2018-May-15 10:30N 35°36' E 140°07'0 0.0
2018-May-15 10:00N 35°36' E 140°07'0 0.0
2018-May-15 09:31N 35°36' E 140°07'0 0.0
2018-May-15 09:01N 35°36' E 140°07'0 0.0
2018-May-15 08:30N 35°36' E 140°07'0 0.0
2018-May-15 08:00N 35°36' E 140°07'0 0.0
2018-May-15 07:31N 35°36' E 140°07'0 0.0
2018-May-15 07:00N 35°36' E 140°07'0 0.0
2018-May-15 06:30N 35°36' E 140°07'0 0.0
2018-May-15 06:00N 35°36' E 140°07'0 0.0
2018-May-15 05:30N 35°36' E 140°07'0 0.0
2018-May-15 05:00N 35°36' E 140°07'1 2.9
2018-May-15 04:30N 35°35' E 140°05'611.6
2018-May-15 04:01N 35°31' E 140°01'2 3.7
2018-May-15 03:30N 35°29' E 140°00'0 0.0
2018-May-15 02:58N 35°29' E 140°00'0 0.2
2018-May-15 02:30N 35°29' E 140°00'2 3.6
2018-May-15 02:01N 35°30' E 139°59'3 6.2
2018-May-15 01:30N 35°29' E 139°55'3 6.5
2018-May-15 01:00N 35°32' E 139°58'0 0.0
2018-May-15 00:30N 35°32' E 139°58'0 0.0
2018-May-15 00:00N 35°32' E 139°58'2 4.3
2018-May-14 23:30N 35°33' E 139°60'611.1
2018-May-14 23:01N 35°36' E 140°05'0 0.7
2018-May-14 22:30N 35°37' E 140°05'1 2.4
2018-May-14 22:00N 35°35' E 140°04'3 6.4
2018-May-14 21:31N 35°34' E 140°01'1 2.0
2018-May-14 21:01N 35°35' E 139°59'4 7.3
2018-May-14 20:30N 35°36' E 140°04'3 5.1
2018-May-14 20:00N 35°36' E 140°07'0 0.0
2018-May-14 19:31N 35°36' E 140°07'0 0.0
2018-May-14 19:00N 35°36' E 140°07'0 0.0
2018-May-14 18:30N 35°36' E 140°07'0 0.0
2018-May-14 18:00N 35°36' E 140°07'0 0.0
2018-May-14 17:30N 35°36' E 140°07'0 0.0
2018-May-14 17:00N 35°36' E 140°07'0 0.0
2018-May-14 16:30N 35°36' E 140°07'0 0.0
2018-May-14 16:00N 35°36' E 140°07'0 0.0
2018-May-14 15:30N 35°36' E 140°07'0 0.0
2018-May-14 15:00N 35°36' E 140°07'0 0.0
2018-May-14 14:30N 35°36' E 140°07'0 0.0
2018-May-14 14:00N 35°36' E 140°07'0 0.0
2018-May-14 13:30N 35°36' E 140°07'0 0.0
2018-May-14 13:00N 35°36' E 140°07'0 0.0
2018-May-14 12:30N 35°36' E 140°07'0 0.0
2018-May-14 12:00N 35°36' E 140°07'0 0.0
2018-May-14 11:30N 35°36' E 140°07'0 0.0
2018-May-14 11:00N 35°36' E 140°07'0 0.0
2018-May-14 10:30N 35°36' E 140°07'0 0.0
2018-May-14 10:00N 35°36' E 140°07'0 0.0
2018-May-14 09:30N 35°36' E 140°07'0 0.0
2018-May-14 09:01N 35°36' E 140°07'0 0.0
2018-May-14 08:30N 35°36' E 140°07'0 0.0
2018-May-14 08:00N 35°36' E 140°07'0 0.0
2018-May-14 07:30N 35°36' E 140°07'0 0.0
2018-May-14 07:01N 35°36' E 140°07'1 1.4
2018-May-14 06:29N 35°35' E 140°06'611.4
2018-May-14 05:58N 35°32' E 140°00'4 8.3
2018-May-14 05:31N 35°28' E 139°58'0 0.0
2018-May-14 05:00N 35°28' E 139°58'0 0.0
2018-May-14 04:31N 35°28' E 139°58'1 1.3
2018-May-14 04:00N 35°29' E 139°58'3 5.1
2018-May-14 03:30N 35°30' E 139°55'0 0.8
2018-May-14 03:01N 35°29' E 139°55'1 1.6
2018-May-14 02:30N 35°29' E 139°55'0 0.1
2018-May-14 02:00N 35°29' E 139°56'3 6.6
2018-May-14 01:28N 35°29' E 139°60'1 1.4
2018-May-14 01:00N 35°29' E 140°00'0 0.8
2018-May-14 00:30N 35°29' E 140°00'4 6.8
2018-May-13 23:57N 35°33' E 139°59'2 5.5
2018-May-13 23:30N 35°35' E 140°00'3 5.2
2018-May-13 23:01N 35°35' E 140°03'2 3.1
2018-May-13 22:30N 35°36' E 140°05'1 1.7
2018-May-13 22:01N 35°36' E 140°05'4 8.6
2018-May-13 21:30N 35°33' E 140°00'1 2.7
2018-May-13 21:00N 35°32' E 139°59'4 7.8
2018-May-13 20:30N 35°35' E 140°03'3 6.8
2018-May-13 20:01N 35°36' E 140°07'0 0.0
2018-May-13 19:31N 35°36' E 140°07'0 0.0
2018-May-13 19:00N 35°36' E 140°07'0 0.0
2018-May-13 18:30N 35°36' E 140°07'0 0.0
2018-May-13 18:00N 35°36' E 140°07'0 0.0
2018-May-13 17:30N 35°36' E 140°07'0 0.0
2018-May-13 17:00N 35°36' E 140°07'0 0.0
2018-May-13 16:31N 35°36' E 140°07'0 0.0
2018-May-13 16:00N 35°36' E 140°07'0 0.0
2018-May-13 15:30N 35°36' E 140°07'0 0.0
2018-May-13 15:01N 35°36' E 140°07'0 0.0
2018-May-13 14:31N 35°36' E 140°07'0 0.0
2018-May-13 14:00N 35°36' E 140°07'0 0.0
2018-May-13 13:30N 35°36' E 140°07'0 0.0
2018-May-13 13:00N 35°36' E 140°07'0 0.0
2018-May-13 12:30N 35°36' E 140°07'0 0.0
2018-May-13 12:00N 35°36' E 140°07'0 0.0
2018-May-13 11:30N 35°36' E 140°07'0 0.0
2018-May-13 11:00N 35°36' E 140°07'0 0.0
2018-May-13 10:30N 35°36' E 140°07'0 0.0
2018-May-13 10:00N 35°36' E 140°07'0 0.0
2018-May-13 09:30N 35°36' E 140°07'0 0.0
2018-May-13 09:01N 35°36' E 140°07'0 0.0
2018-May-13 08:30N 35°36' E 140°07'0 0.0
2018-May-13 08:00N 35°36' E 140°07'0 0.0
2018-May-13 07:31N 35°36' E 140°07'0 0.0
2018-May-13 07:00N 35°36' E 140°07'0 0.0
2018-May-13 06:31N 35°36' E 140°07'0 0.0
2018-May-13 06:00N 35°36' E 140°07'4 8.4
2018-May-13 05:30N 35°33' E 140°03'2 3.9
2018-May-13 05:00N 35°31' E 140°02'1 2.1
2018-May-13 04:30N 35°31' E 140°01'0 0.0
2018-May-13 04:00N 35°31' E 140°01'0 0.0
2018-May-13 03:31N 35°31' E 140°01'0 0.0
2018-May-13 03:00N 35°31' E 140°01'0 0.0
2018-May-13 02:30N 35°31' E 140°01'0 0.0
2018-May-13 02:00N 35°31' E 140°01'0 0.0
2018-May-13 01:30N 35°31' E 140°01'0 0.0
2018-May-13 01:00N 35°31' E 140°01'1 2.2
2018-May-13 00:30N 35°30' E 139°60'3 6.9
2018-May-13 00:00N 35°27' E 139°58'1 1.6
2018-May-12 23:30N 35°28' E 139°58'612.9
2018-May-12 23:00N 35°33' E 140°02'5 9.1
2018-May-12 22:30N 35°36' E 140°07'0 0.0
2018-May-12 22:00N 35°36' E 140°07'0 0.0
2018-May-12 21:30N 35°36' E 140°07'0 0.0
2018-May-12 21:00N 35°36' E 140°07'0 0.0
2018-May-12 20:30N 35°36' E 140°07'0 0.0
2018-May-12 20:00N 35°36' E 140°07'0 0.0
2018-May-12 19:30N 35°36' E 140°07'0 0.0
2018-May-12 19:00N 35°36' E 140°07'0 0.0
2018-May-12 18:30N 35°36' E 140°07'0 0.0
2018-May-12 18:00N 35°36' E 140°07'0 0.0
2018-May-12 17:30N 35°36' E 140°07'0 0.0
2018-May-12 17:00N 35°36' E 140°07'0 0.0
2018-May-12 16:30N 35°36' E 140°07'0 0.0
2018-May-12 16:00N 35°36' E 140°07'0 0.0
2018-May-12 15:30N 35°36' E 140°07'0 0.0
2018-May-12 15:00N 35°36' E 140°07'0 0.0
2018-May-12 14:30N 35°36' E 140°07'0 0.0
2018-May-12 14:00N 35°36' E 140°07'0 0.0
2018-May-12 13:30N 35°36' E 140°07'0 0.0
2018-May-12 13:00N 35°36' E 140°07'0 0.0
2018-May-12 12:30N 35°36' E 140°07'0 0.0
2018-May-12 12:00N 35°36' E 140°07'0 0.0
2018-May-12 11:30N 35°36' E 140°07'0 0.0
2018-May-12 11:00N 35°36' E 140°07'0 0.0
2018-May-12 10:30N 35°36' E 140°07'0 0.0
2018-May-12 10:00N 35°36' E 140°07'0 0.0
2018-May-12 09:30N 35°36' E 140°07'0 0.0
2018-May-12 09:00N 35°36' E 140°07'0 0.0
2018-May-12 08:30N 35°36' E 140°07'0 0.0
2018-May-12 08:00N 35°36' E 140°07'0 0.0
2018-May-12 07:30N 35°36' E 140°07'0 0.9
2018-May-12 07:00N 35°35' E 140°07'1 2.5
2018-May-12 06:30N 35°36' E 140°05'1 2.7
2018-May-12 06:00N 35°35' E 140°05'0 0.0
2018-May-12 05:30N 35°35' E 140°05'0 0.0
2018-May-12 05:00N 35°35' E 140°05'1 2.7
2018-May-12 04:30N 35°36' E 140°05'1 2.6
2018-May-12 04:00N 35°36' E 140°07'0 0.0
2018-May-12 03:30N 35°36' E 140°07'0 0.0
2018-May-12 03:00N 35°36' E 140°07'0 0.0
2018-May-12 02:30N 35°36' E 140°07'0 0.0
2018-May-12 02:00N 35°36' E 140°07'0 0.0
2018-May-12 01:30N 35°36' E 140°07'0 0.0
2018-May-12 01:00N 35°36' E 140°07'0 0.0
2018-May-12 00:30N 35°36' E 140°07'0 0.0
2018-May-12 00:00N 35°36' E 140°07'0 0.0
2018-May-11 23:30N 35°36' E 140°07'0 0.0
2018-May-11 23:00N 35°36' E 140°07'0 0.0
2018-May-11 22:30N 35°36' E 140°07'0 0.0
2018-May-11 22:00N 35°36' E 140°07'0 0.0
2018-May-11 21:30N 35°36' E 140°07'0 0.0
2018-May-11 21:00N 35°36' E 140°07'0 0.0
2018-May-11 20:30N 35°36' E 140°07'0 0.0
2018-May-11 20:00N 35°36' E 140°07'0 0.0
2018-May-11 19:30N 35°36' E 140°07'0 0.0
2018-May-11 19:00N 35°36' E 140°07'0 0.0
2018-May-11 18:30N 35°36' E 140°07'0 0.0
2018-May-11 18:00N 35°36' E 140°07'0 0.0
2018-May-11 17:30N 35°36' E 140°07'0 0.0
2018-May-11 17:00N 35°36' E 140°07'0 0.0
2018-May-11 16:31N 35°36' E 140°07'0 0.0
2018-May-11 16:00N 35°36' E 140°07'0 0.0
2018-May-11 15:30N 35°36' E 140°07'0 0.0
2018-May-11 15:00N 35°36' E 140°07'0 0.0
2018-May-11 14:30N 35°36' E 140°07'0 0.0
2018-May-11 14:00N 35°36' E 140°07'0 0.0
2018-May-11 13:30N 35°36' E 140°07'0 0.0
2018-May-11 12:59N 35°36' E 140°07'0 0.0
2018-May-11 12:30N 35°36' E 140°07'0 0.0
2018-May-11 12:00N 35°36' E 140°07'0 0.0
2018-May-11 11:30N 35°36' E 140°07'0 0.0
2018-May-11 11:00N 35°36' E 140°07'0 0.0
2018-May-11 10:30N 35°36' E 140°07'0 0.0
2018-May-11 10:00N 35°36' E 140°07'0 0.0
2018-May-11 09:30N 35°36' E 140°07'0 0.0
2018-May-11 09:00N 35°36' E 140°07'0 0.0
2018-May-11 08:30N 35°36' E 140°07'0 0.0
2018-May-11 08:00N 35°36' E 140°07'0 0.0
2018-May-11 07:30N 35°36' E 140°07'0 0.0
2018-May-11 07:00N 35°36' E 140°07'0 0.2
2018-May-11 06:30N 35°36' E 140°07'612.4
2018-May-11 06:00N 35°34' E 139°60'0 0.4
2018-May-11 05:30N 35°34' E 139°59'4 7.4
2018-May-11 05:00N 35°30' E 140°01'1 1.3
2018-May-11 04:30N 35°30' E 140°02'  
Track history (hours):
 
Tides and Currents Weather Stations Pressure Air Temp Water Temp Dewpoint Dewpoint Depression Visibility Wind Speed Wind Dir Waves Ship Positions

Akebono

Last reported at 2018-May-21 04:03 UTC. Time now 2018-May-21 20:48 UTC.
Position N 35°31' E 140°02'.

Length 33 m; draft 4.4 m.

Type: Tug. MMSI: 431000233.

Date/timePositionNaut miles runAvg speedWind from/ knotsBaromVisibWave heightAir tempDewpointWater temp
2018-May-21 04:03N 35°31' E 140°02'4 0.1
2018-May-19 10:37N 35°29' E 139°58'  
2018-May-15 14:20N 35°36' E 140°07'0 0.0
2018-May-15 14:00N 35°36' E 140°07'0 0.0
2018-May-15 13:30N 35°36' E 140°07'0 0.0
2018-May-15 13:00N 35°36' E 140°07'0 0.0
2018-May-15 12:31N 35°36' E 140°07'0 0.0
2018-May-15 12:01N 35°36' E 140°07'0 0.0
2018-May-15 11:31N 35°36' E 140°07'0 0.0
2018-May-15 11:01N 35°36' E 140°07'0 0.0
2018-May-15 10:30N 35°36' E 140°07'0 0.0
2018-May-15 10:00N 35°36' E 140°07'0 0.0
2018-May-15 09:31N 35°36' E 140°07'0 0.0
2018-May-15 09:01N 35°36' E 140°07'0 0.0
2018-May-15 08:30N 35°36' E 140°07'0 0.0
2018-May-15 08:00N 35°36' E 140°07'0 0.0
2018-May-15 07:31N 35°36' E 140°07'0 0.0
2018-May-15 07:00N 35°36' E 140°07'0 0.0
2018-May-15 06:30N 35°36' E 140°07'0 0.0
2018-May-15 06:00N 35°36' E 140°07'0 0.0
2018-May-15 05:30N 35°36' E 140°07'0 0.0
2018-May-15 05:00N 35°36' E 140°07'1 2.9
2018-May-15 04:30N 35°35' E 140°05'611.6
2018-May-15 04:01N 35°31' E 140°01'2 3.7
2018-May-15 03:30N 35°29' E 140°00'0 0.0
2018-May-15 02:58N 35°29' E 140°00'0 0.2
2018-May-15 02:30N 35°29' E 140°00'2 3.6
2018-May-15 02:01N 35°30' E 139°59'3 6.2
2018-May-15 01:30N 35°29' E 139°55'3 6.5
2018-May-15 01:00N 35°32' E 139°58'0 0.0
2018-May-15 00:30N 35°32' E 139°58'0 0.0
2018-May-15 00:00N 35°32' E 139°58'2 4.3
2018-May-14 23:30N 35°33' E 139°60'611.1
2018-May-14 23:01N 35°36' E 140°05'0 0.7
2018-May-14 22:30N 35°37' E 140°05'1 2.4
2018-May-14 22:00N 35°35' E 140°04'3 6.4
2018-May-14 21:31N 35°34' E 140°01'1 2.0
2018-May-14 21:01N 35°35' E 139°59'4 7.3
2018-May-14 20:30N 35°36' E 140°04'3 5.1
2018-May-14 20:00N 35°36' E 140°07'0 0.0
2018-May-14 19:31N 35°36' E 140°07'0 0.0
2018-May-14 19:00N 35°36' E 140°07'0 0.0
2018-May-14 18:30N 35°36' E 140°07'0 0.0
2018-May-14 18:00N 35°36' E 140°07'0 0.0
2018-May-14 17:30N 35°36' E 140°07'0 0.0
2018-May-14 17:00N 35°36' E 140°07'0 0.0
2018-May-14 16:30N 35°36' E 140°07'0 0.0
2018-May-14 16:00N 35°36' E 140°07'0 0.0
2018-May-14 15:30N 35°36' E 140°07'0 0.0
2018-May-14 15:00N 35°36' E 140°07'0 0.0
2018-May-14 14:30N 35°36' E 140°07'0 0.0
2018-May-14 14:00N 35°36' E 140°07'0 0.0
2018-May-14 13:30N 35°36' E 140°07'0 0.0
2018-May-14 13:00N 35°36' E 140°07'0 0.0
2018-May-14 12:30N 35°36' E 140°07'0 0.0
2018-May-14 12:00N 35°36' E 140°07'0 0.0
2018-May-14 11:30N 35°36' E 140°07'0 0.0
2018-May-14 11:00N 35°36' E 140°07'0 0.0
2018-May-14 10:30N 35°36' E 140°07'0 0.0
2018-May-14 10:00N 35°36' E 140°07'0 0.0
2018-May-14 09:30N 35°36' E 140°07'0 0.0
2018-May-14 09:01N 35°36' E 140°07'0 0.0
2018-May-14 08:30N 35°36' E 140°07'0 0.0
2018-May-14 08:00N 35°36' E 140°07'0 0.0
2018-May-14 07:30N 35°36' E 140°07'0 0.0
2018-May-14 07:01N 35°36' E 140°07'1 1.4
2018-May-14 06:29N 35°35' E 140°06'611.4
2018-May-14 05:58N 35°32' E 140°00'4 8.3
2018-May-14 05:31N 35°28' E 139°58'0 0.0
2018-May-14 05:00N 35°28' E 139°58'0 0.0
2018-May-14 04:31N 35°28' E 139°58'1 1.3
2018-May-14 04:00N 35°29' E 139°58'3 5.1
2018-May-14 03:30N 35°30' E 139°55'0 0.8
2018-May-14 03:01N 35°29' E 139°55'1 1.6
2018-May-14 02:30N 35°29' E 139°55'0 0.1
2018-May-14 02:00N 35°29' E 139°56'3 6.6
2018-May-14 01:28N 35°29' E 139°60'1 1.4
2018-May-14 01:00N 35°29' E 140°00'0 0.8
2018-May-14 00:30N 35°29' E 140°00'4 6.8
2018-May-13 23:57N 35°33' E 139°59'2 5.5
2018-May-13 23:30N 35°35' E 140°00'3 5.2
2018-May-13 23:01N 35°35' E 140°03'2 3.1
2018-May-13 22:30N 35°36' E 140°05'1 1.7
2018-May-13 22:01N 35°36' E 140°05'4 8.6
2018-May-13 21:30N 35°33' E 140°00'1 2.7
2018-May-13 21:00N 35°32' E 139°59'4 7.8
2018-May-13 20:30N 35°35' E 140°03'3 6.8
2018-May-13 20:01N 35°36' E 140°07'0 0.0
2018-May-13 19:31N 35°36' E 140°07'0 0.0
2018-May-13 19:00N 35°36' E 140°07'0 0.0
2018-May-13 18:30N 35°36' E 140°07'0 0.0
2018-May-13 18:00N 35°36' E 140°07'0 0.0
2018-May-13 17:30N 35°36' E 140°07'0 0.0
2018-May-13 17:00N 35°36' E 140°07'0 0.0
2018-May-13 16:31N 35°36' E 140°07'0 0.0
2018-May-13 16:00N 35°36' E 140°07'0 0.0
2018-May-13 15:30N 35°36' E 140°07'0 0.0
2018-May-13 15:01N 35°36' E 140°07'0 0.0
2018-May-13 14:31N 35°36' E 140°07'0 0.0
2018-May-13 14:00N 35°36' E 140°07'0 0.0
2018-May-13 13:30N 35°36' E 140°07'0 0.0
2018-May-13 13:00N 35°36' E 140°07'0 0.0
2018-May-13 12:30N 35°36' E 140°07'0 0.0
2018-May-13 12:00N 35°36' E 140°07'0 0.0
2018-May-13 11:30N 35°36' E 140°07'0 0.0
2018-May-13 11:00N 35°36' E 140°07'0 0.0
2018-May-13 10:30N 35°36' E 140°07'0 0.0
2018-May-13 10:00N 35°36' E 140°07'0 0.0
2018-May-13 09:30N 35°36' E 140°07'0 0.0
2018-May-13 09:01N 35°36' E 140°07'0 0.0
2018-May-13 08:30N 35°36' E 140°07'0 0.0
2018-May-13 08:00N 35°36' E 140°07'0 0.0
2018-May-13 07:31N 35°36' E 140°07'0 0.0
2018-May-13 07:00N 35°36' E 140°07'0 0.0
2018-May-13 06:31N 35°36' E 140°07'0 0.0
2018-May-13 06:00N 35°36' E 140°07'4 8.4
2018-May-13 05:30N 35°33' E 140°03'2 3.9
2018-May-13 05:00N 35°31' E 140°02'1 2.1
2018-May-13 04:30N 35°31' E 140°01'0 0.0
2018-May-13 04:00N 35°31' E 140°01'0 0.0
2018-May-13 03:31N 35°31' E 140°01'0 0.0
2018-May-13 03:00N 35°31' E 140°01'0 0.0
2018-May-13 02:30N 35°31' E 140°01'0 0.0
2018-May-13 02:00N 35°31' E 140°01'0 0.0
2018-May-13 01:30N 35°31' E 140°01'0 0.0
2018-May-13 01:00N 35°31' E 140°01'1 2.2
2018-May-13 00:30N 35°30' E 139°60'3 6.9
2018-May-13 00:00N 35°27' E 139°58'1 1.6
2018-May-12 23:30N 35°28' E 139°58'612.9
2018-May-12 23:00N 35°33' E 140°02'5 9.1
2018-May-12 22:30N 35°36' E 140°07'0 0.0
2018-May-12 22:00N 35°36' E 140°07'0 0.0
2018-May-12 21:30N 35°36' E 140°07'0 0.0
2018-May-12 21:00N 35°36' E 140°07'0 0.0
2018-May-12 20:30N 35°36' E 140°07'0 0.0
2018-May-12 20:00N 35°36' E 140°07'0 0.0
2018-May-12 19:30N 35°36' E 140°07'0 0.0
2018-May-12 19:00N 35°36' E 140°07'0 0.0
2018-May-12 18:30N 35°36' E 140°07'0 0.0
2018-May-12 18:00N 35°36' E 140°07'0 0.0
2018-May-12 17:30N 35°36' E 140°07'0 0.0
2018-May-12 17:00N 35°36' E 140°07'0 0.0
2018-May-12 16:30N 35°36' E 140°07'0 0.0
2018-May-12 16:00N 35°36' E 140°07'0 0.0
2018-May-12 15:30N 35°36' E 140°07'0 0.0
2018-May-12 15:00N 35°36' E 140°07'0 0.0
2018-May-12 14:30N 35°36' E 140°07'0 0.0
2018-May-12 14:00N 35°36' E 140°07'0 0.0
2018-May-12 13:30N 35°36' E 140°07'0 0.0
2018-May-12 13:00N 35°36' E 140°07'0 0.0
2018-May-12 12:30N 35°36' E 140°07'0 0.0
2018-May-12 12:00N 35°36' E 140°07'0 0.0
2018-May-12 11:30N 35°36' E 140°07'0 0.0
2018-May-12 11:00N 35°36' E 140°07'0 0.0
2018-May-12 10:30N 35°36' E 140°07'0 0.0
2018-May-12 10:00N 35°36' E 140°07'0 0.0
2018-May-12 09:30N 35°36' E 140°07'0 0.0
2018-May-12 09:00N 35°36' E 140°07'0 0.0
2018-May-12 08:30N 35°36' E 140°07'0 0.0
2018-May-12 08:00N 35°36' E 140°07'0 0.0
2018-May-12 07:30N 35°36' E 140°07'0 0.9
2018-May-12 07:00N 35°35' E 140°07'1 2.5
2018-May-12 06:30N 35°36' E 140°05'1 2.7
2018-May-12 06:00N 35°35' E 140°05'0 0.0
2018-May-12 05:30N 35°35' E 140°05'0 0.0
2018-May-12 05:00N 35°35' E 140°05'1 2.7
2018-May-12 04:30N 35°36' E 140°05'1 2.6
2018-May-12 04:00N 35°36' E 140°07'0 0.0
2018-May-12 03:30N 35°36' E 140°07'0 0.0
2018-May-12 03:00N 35°36' E 140°07'0 0.0
2018-May-12 02:30N 35°36' E 140°07'0 0.0
2018-May-12 02:00N 35°36' E 140°07'0 0.0
2018-May-12 01:30N 35°36' E 140°07'0 0.0
2018-May-12 01:00N 35°36' E 140°07'0 0.0
2018-May-12 00:30N 35°36' E 140°07'0 0.0
2018-May-12 00:00N 35°36' E 140°07'0 0.0
2018-May-11 23:30N 35°36' E 140°07'0 0.0
2018-May-11 23:00N 35°36' E 140°07'0 0.0
2018-May-11 22:30N 35°36' E 140°07'0 0.0
2018-May-11 22:00N 35°36' E 140°07'0 0.0
2018-May-11 21:30N 35°36' E 140°07'0 0.0
2018-May-11 21:00N 35°36' E 140°07'0 0.0
2018-May-11 20:30N 35°36' E 140°07'0 0.0
2018-May-11 20:00N 35°36' E 140°07'0 0.0
2018-May-11 19:30N 35°36' E 140°07'0 0.0
2018-May-11 19:00N 35°36' E 140°07'0 0.0
2018-May-11 18:30N 35°36' E 140°07'0 0.0
2018-May-11 18:00N 35°36' E 140°07'0 0.0
2018-May-11 17:30N 35°36' E 140°07'0 0.0
2018-May-11 17:00N 35°36' E 140°07'0 0.0
2018-May-11 16:31N 35°36' E 140°07'0 0.0
2018-May-11 16:00N 35°36' E 140°07'0 0.0
2018-May-11 15:30N 35°36' E 140°07'0 0.0
2018-May-11 15:00N 35°36' E 140°07'0 0.0
2018-May-11 14:30N 35°36' E 140°07'0 0.0
2018-May-11 14:00N 35°36' E 140°07'0 0.0
2018-May-11 13:30N 35°36' E 140°07'0 0.0
2018-May-11 12:59N 35°36' E 140°07'0 0.0
2018-May-11 12:30N 35°36' E 140°07'0 0.0
2018-May-11 12:00N 35°36' E 140°07'0 0.0
2018-May-11 11:30N 35°36' E 140°07'0 0.0
2018-May-11 11:00N 35°36' E 140°07'0 0.0
2018-May-11 10:30N 35°36' E 140°07'0 0.0
2018-May-11 10:00N 35°36' E 140°07'0 0.0
2018-May-11 09:30N 35°36' E 140°07'0 0.0
2018-May-11 09:00N 35°36' E 140°07'0 0.0
2018-May-11 08:30N 35°36' E 140°07'0 0.0
2018-May-11 08:00N 35°36' E 140°07'0 0.0
2018-May-11 07:30N 35°36' E 140°07'0 0.0
2018-May-11 07:00N 35°36' E 140°07'0 0.2
2018-May-11 06:30N 35°36' E 140°07'612.4
2018-May-11 06:00N 35°34' E 139°60'0 0.4
2018-May-11 05:30N 35°34' E 139°59'4 7.4
2018-May-11 05:00N 35°30' E 140°01'1 1.3
2018-May-11 04:30N 35°30' E 140°02'  

Dump ship's entire track history